Time;durP1;ratioP1;P1;durP2;ratioP2;P2;SDS_P1;SDS_P2;PMS_P1;PMS_P2;Temp;Humidity;BMP_temperature;BMP_pressure;BME280_temperature;BME280_humidity;BME280_pressure;Samples;Min_cycle;Max_cycle;Signal;HPM_P1;HPM_P2
2023/08/20 00:01:36;;;;;;;10.57;4.95;;;;;;;21.37;95.31;101974.31;6048509;29;20270;-67
2023/08/20 00:04:58;;;;;;;8.50;4.80;;;;;;;21.51;95.58;101980.91;6051602;29;20505;-67
2023/08/20 00:08:20;;;;;;;9.40;4.13;;;;;;;21.69;95.60;101987.00;6058976;29;20252;-69
2023/08/20 00:11:41;;;;;;;4.18;3.58;;;;;;;21.51;95.00;101994.63;6059545;29;20320;-67
2023/08/20 00:15:05;;;;;;;6.18;4.32;;;;;;;21.38;95.39;102002.63;6058031;29;20348;-67
2023/08/20 00:18:27;;;;;;;7.82;4.47;;;;;;;21.49;95.73;102005.81;6054173;29;20544;-68
2023/08/20 00:21:48;;;;;;;8.55;5.25;;;;;;;21.47;95.64;102012.50;6058024;29;20565;-67
2023/08/20 00:25:12;;;;;;;6.28;3.92;;;;;;;21.44;95.88;102012.88;6052380;29;20237;-68
2023/08/20 00:28:34;;;;;;;14.00;5.13;;;;;;;21.19;96.74;102014.88;6045099;29;20635;-68
2023/08/20 00:31:55;;;;;;;9.23;4.28;;;;;;;21.20;96.68;102007.47;6033123;29;20237;-67
2023/08/20 00:35:16;;;;;;;9.57;4.80;;;;;;;21.11;97.39;102014.06;6057969;29;20253;-67
2023/08/20 00:38:37;;;;;;;7.55;5.20;;;;;;;21.02;97.92;102015.06;6060392;29;21047;-66
2023/08/20 00:41:59;;;;;;;9.20;4.50;;;;;;;20.99;98.30;102020.88;6057720;29;20233;-67
2023/08/20 00:45:20;;;;;;;9.73;4.72;;;;;;;21.06;98.30;102011.84;6054483;29;20332;-68
2023/08/20 00:48:41;;;;;;;7.88;5.22;;;;;;;21.11;98.47;102019.53;6055938;29;20237;-67
2023/08/20 00:52:03;;;;;;;5.63;4.68;;;;;;;21.11;98.29;102019.53;6042266;29;20533;-67
2023/08/20 00:55:25;;;;;;;8.57;6.00;;;;;;;21.08;98.01;102022.63;6061847;29;20233;-68
2023/08/20 00:58:48;;;;;;;10.10;5.05;;;;;;;21.19;97.83;102025.00;6048902;29;20229;-67
2023/08/20 01:02:09;;;;;;;8.73;5.28;;;;;;;21.14;97.70;102016.41;6060213;29;20328;-67
2023/08/20 01:05:34;;;;;;;8.55;4.07;;;;;;;21.09;97.92;102018.84;6058222;29;20498;-67
2023/08/20 01:09:02;;;;;;;11.57;4.28;;;;;;;21.13;97.83;102014.72;6046154;29;20591;-67
2023/08/20 01:12:25;;;;;;;7.63;5.30;;;;;;;21.09;97.71;102016.94;6067882;29;20232;-67
2023/08/20 01:15:47;;;;;;;16.77;6.45;;;;;;;20.93;97.88;102016.09;6064226;29;20230;-67
2023/08/20 01:19:15;;;;;;;7.55;5.07;;;;;;;20.96;98.19;102013.03;6042948;29;20252;-66
2023/08/20 01:23:14;;;;;;;6.82;4.78;;;;;;;20.93;98.56;102010.63;6070799;29;20327;-67
2023/08/20 01:27:14;;;;;;;9.23;5.20;;;;;;;20.88;98.74;102013.88;6051295;29;20233;-68
2023/08/20 01:30:36;;;;;;;6.22;5.00;;;;;;;20.93;98.83;102016.09;6000096;29;20238;-67
2023/08/20 01:33:57;;;;;;;13.95;5.68;;;;;;;20.90;98.67;102021.97;6002802;29;20241;-67
2023/08/20 01:37:18;;;;;;;7.85;5.93;;;;;;;20.92;98.75;102022.63;6037057;29;20320;-67
2023/08/20 01:40:39;;;;;;;13.52;6.25;;;;;;;20.92;99.07;102022.63;6037720;29;20245;-67
2023/08/20 01:44:01;;;;;;;6.13;4.85;;;;;;;20.95;99.12;102022.28;6042196;29;20237;-67
2023/08/20 01:47:26;;;;;;;9.18;5.35;;;;;;;20.82;99.03;102021.97;6054660;29;20237;-67
2023/08/20 01:50:47;;;;;;;5.85;4.55;;;;;;;20.80;99.01;102019.41;6038740;29;20423;-67
2023/08/20 01:54:07;;;;;;;8.13;5.22;;;;;;;20.89;98.89;102028.47;6054047;29;20230;-67
2023/08/20 01:57:28;;;;;;;8.40;5.28;;;;;;;20.79;98.91;102022.31;6052996;29;20234;-67
2023/08/20 02:00:49;;;;;;;7.60;5.30;;;;;;;20.80;98.93;102021.31;6054112;29;20718;-66
2023/08/20 02:04:11;;;;;;;9.00;5.00;;;;;;;20.76;98.91;102018.03;6053783;29;20232;-68
2023/08/20 02:07:32;;;;;;;6.38;4.95;;;;;;;20.73;98.77;102018.41;6047303;29;20233;-68
2023/08/20 02:11:00;;;;;;;6.47;5.05;;;;;;;20.64;98.92;102017.56;6041563;29;20597;-67
2023/08/20 02:14:21;;;;;;;11.65;5.18;;;;;;;20.66;99.16;102020.97;6042843;29;20690;-66
2023/08/20 02:17:42;;;;;;;9.95;5.43;;;;;;;20.73;99.05;102020.28;6054737;29;20297;-67
2023/08/20 02:21:05;;;;;;;9.60;6.25;;;;;;;20.57;99.09;102019.25;6055524;29;20233;-67
2023/08/20 02:24:25;;;;;;;7.55;6.20;;;;;;;20.53;99.33;102025.25;6048262;29;20233;-67
2023/08/20 02:27:46;;;;;;;8.80;6.30;;;;;;;20.56;99.32;102034.00;6045935;29;20237;-67
2023/08/20 02:31:07;;;;;;;12.00;5.78;;;;;;;20.05;100.00;102036.19;6043756;29;20221;-68
2023/08/20 02:34:31;;;;;;;13.30;6.28;;;;;;;20.10;100.00;102025.59;6061317;29;20791;-68
2023/08/20 02:37:53;;;;;;;7.30;5.03;;;;;;;20.24;100.00;102028.53;6044134;29;20238;-67
2023/08/20 02:41:14;;;;;;;6.75;5.45;;;;;;;20.34;100.00;102023.72;6054711;29;20233;-67
2023/08/20 02:44:37;;;;;;;13.88;7.00;;;;;;;20.47;100.00;102017.72;6040659;29;20604;-66
2023/08/20 02:47:58;;;;;;;10.50;6.13;;;;;;;20.45;100.00;102011.56;6043560;29;20261;-67
2023/08/20 02:51:19;;;;;;;11.55;6.03;;;;;;;20.34;100.00;102018.25;6057574;29;20237;-66
2023/08/20 02:54:41;;;;;;;7.88;5.15;;;;;;;20.30;100.00;102011.41;6056472;29;20253;-67
2023/08/20 02:58:03;;;;;;;7.78;4.88;;;;;;;20.37;100.00;102020.66;6044154;29;20240;-68
2023/08/20 03:01:25;;;;;;;11.35;5.43;;;;;;;20.21;100.00;102014.34;6045668;29;20244;-66
2023/08/20 03:04:47;;;;;;;16.05;5.32;;;;;;;20.27;100.00;102024.59;6063921;29;20233;-67
2023/08/20 03:08:07;;;;;;;7.05;5.85;;;;;;;20.26;100.00;102018.25;6039974;29;20325;-67
2023/08/20 03:11:30;;;;;;;10.52;5.97;;;;;;;20.04;100.00;102027.13;6047066;29;20268;-67
2023/08/20 03:14:51;;;;;;;7.80;5.13;;;;;;;20.12;100.00;102027.13;6061494;29;20237;-67
2023/08/20 03:18:12;;;;;;;6.18;4.75;;;;;;;20.17;100.00;102030.19;6033057;29;20608;-66
2023/08/20 03:21:33;;;;;;;8.85;6.32;;;;;;;20.16;100.00;102033.97;6058481;29;20526;-67
2023/08/20 03:24:54;;;;;;;6.22;4.88;;;;;;;20.20;100.00;102035.38;6053060;29;20229;-67
2023/08/20 03:28:16;;;;;;;10.75;6.78;;;;;;;20.19;100.00;102039.13;6047071;29;20237;-68
2023/08/20 03:31:38;;;;;;;7.75;5.60;;;;;;;19.89;100.00;102034.28;6065130;29;20320;-68
2023/08/20 03:34:59;;;;;;;9.20;5.95;;;;;;;19.97;100.00;102038.91;6050545;29;20323;-67
2023/08/20 03:38:22;;;;;;;13.15;6.05;;;;;;;20.13;100.00;102045.25;6036612;29;20241;-66
2023/08/20 03:41:42;;;;;;;7.35;5.28;;;;;;;20.08;100.00;102039.44;6053405;29;20506;-67
2023/08/20 03:45:05;;;;;;;6.65;4.78;;;;;;;20.02;100.00;102045.59;6061211;29;20233;-67
2023/08/20 03:48:27;;;;;;;11.50;5.90;;;;;;;20.09;100.00;102046.63;6063977;29;20809;-68
2023/08/20 03:51:47;;;;;;;7.35;5.38;;;;;;;20.06;100.00;102046.97;6043822;29;20237;-67
2023/08/20 03:55:09;;;;;;;8.10;5.93;;;;;;;19.90;100.00;102052.44;6054540;29;20237;-67
2023/08/20 03:58:30;;;;;;;8.57;7.35;;;;;;;19.81;100.00;102057.03;6050821;29;23072;-68
2023/08/20 04:01:52;;;;;;;10.07;6.68;;;;;;;19.90;100.00;102069.69;6017815;29;20332;-68
2023/08/20 04:05:13;;;;;;;8.82;6.72;;;;;;;20.04;100.00;102067.34;6044379;29;20551;-67
2023/08/20 04:08:34;;;;;;;11.27;6.18;;;;;;;20.04;100.00;102070.06;6045156;29;20237;-68
2023/08/20 04:11:55;;;;;;;7.85;6.40;;;;;;;20.09;100.00;102076.75;6021130;29;20325;-67
2023/08/20 04:15:15;;;;;;;9.63;8.30;;;;;;;20.08;100.00;102068.72;6056684;29;20237;-67
2023/08/20 04:18:38;;;;;;;11.60;8.35;;;;;;;19.84;100.00;102069.50;6059287;29;20229;-66
2023/08/20 04:21:58;;;;;;;17.35;8.75;;;;;;;19.85;100.00;102073.97;6033917;29;20240;-66
2023/08/20 04:25:19;;;;;;;8.43;7.50;;;;;;;20.07;100.00;102075.22;6052564;29;20225;-67
2023/08/20 04:28:42;;;;;;;13.00;10.27;;;;;;;19.81;100.00;102081.66;6037043;29;20315;-66
2023/08/20 04:32:03;;;;;;;11.10;9.32;;;;;;;19.28;100.00;102093.88;6033923;29;20240;-67
2023/08/20 04:35:26;;;;;;;15.27;11.02;;;;;;;19.67;100.00;102092.41;6044749;29;20256;-67
2023/08/20 04:38:47;;;;;;;13.95;9.90;;;;;;;19.29;100.00;102092.84;6034955;29;20241;-66
2023/08/20 04:42:08;;;;;;;14.80;10.98;;;;;;;19.21;100.00;102090.94;6029832;29;20229;-65
2023/08/20 04:45:29;;;;;;;18.40;13.07;;;;;;;19.24;100.00;102090.59;6045604;29;20353;-67
2023/08/20 04:48:51;;;;;;;11.98;9.93;;;;;;;19.54;100.00;102084.66;6041479;29;20233;-66
2023/08/20 04:52:14;;;;;;;12.52;10.32;;;;;;;19.72;100.00;102088.13;6031497;29;21165;-67
2023/08/20 04:55:36;;;;;;;16.98;10.98;;;;;;;19.52;100.00;102083.97;6051419;29;20336;-67
2023/08/20 04:58:57;;;;;;;19.83;11.38;;;;;;;19.49;100.00;102072.47;6058708;29;20600;-67
2023/08/20 05:02:44;;;;;;;16.25;11.93;;;;;;;19.46;100.00;102081.84;6045530;29;20237;-67
2023/08/20 05:06:08;;;;;;;14.77;10.80;;;;;;;19.38;100.00;102083.72;6061491;29;20607;-68
2023/08/20 05:09:31;;;;;;;17.60;11.63;;;;;;;19.37;100.00;102065.56;6051354;29;20229;-67
2023/08/20 05:12:52;;;;;;;21.05;12.02;;;;;;;19.26;100.00;102071.28;6038799;29;20230;-67
2023/08/20 05:16:12;;;;;;;17.55;12.75;;;;;;;19.19;100.00;102087.53;6056206;29;20225;-67
2023/08/20 05:19:33;;;;;;;26.40;12.05;;;;;;;19.07;100.00;102086.06;6053144;29;20244;-67
2023/08/20 05:22:54;;;;;;;19.70;14.90;;;;;;;19.26;100.00;102085.84;6042936;29;20233;-66
2023/08/20 05:26:16;;;;;;;20.27;13.82;;;;;;;19.57;100.00;102076.09;6066843;29;20632;-67
2023/08/20 05:29:38;;;;;;;21.20;14.80;;;;;;;19.68;100.00;102081.28;6041171;29;20233;-68
2023/08/20 05:32:59;;;;;;;24.85;15.85;;;;;;;19.87;100.00;102055.50;6042070;29;20232;-67
2023/08/20 05:36:24;;;;;;;19.65;14.75;;;;;;;20.13;100.00;102048.00;6050039;29;20260;-67
2023/08/20 05:39:45;;;;;;;14.95;12.40;;;;;;;19.97;100.00;102037.03;6061512;29;20233;-67
2023/08/20 05:43:08;;;;;;;18.50;12.88;;;;;;;19.99;100.00;102039.59;6048795;29;20596;-67
2023/08/20 05:46:29;;;;;;;15.00;9.95;;;;;;;20.30;100.00;102051.63;6047790;29;20229;-67
2023/08/20 05:49:50;;;;;;;13.93;10.48;;;;;;;20.27;100.00;102068.44;6042704;29;20229;-67
2023/08/20 05:53:11;;;;;;;15.40;9.75;;;;;;;20.03;100.00;102068.34;6050909;29;20221;-66
2023/08/20 05:56:32;;;;;;;14.82;9.73;;;;;;;19.92;100.00;102084.06;6060970;29;20233;-67
2023/08/20 05:59:55;;;;;;;10.30;7.38;;;;;;;20.38;100.00;102085.38;6017372;29;20253;-67
2023/08/20 06:03:15;;;;;;;12.10;8.13;;;;;;;20.84;100.00;102093.94;6043751;29;20233;-67
2023/08/20 06:06:36;;;;;;;10.75;8.00;;;;;;;21.08;100.00;102083.81;6056716;29;20236;-68
2023/08/20 06:09:57;;;;;;;8.50;7.47;;;;;;;21.12;100.00;102085.19;6056634;29;20281;-67
2023/08/20 06:13:18;;;;;;;18.02;10.10;;;;;;;20.50;100.00;102085.91;6043581;29;20244;-67
2023/08/20 06:16:40;;;;;;;15.35;10.68;;;;;;;20.48;100.00;102086.09;6055956;29;20308;-67
2023/08/20 06:20:05;;;;;;;12.63;10.65;;;;;;;20.62;100.00;102095.50;6057166;29;20253;-68
2023/08/20 06:23:25;;;;;;;15.63;10.30;;;;;;;20.23;100.00;102092.56;6051698;29;20261;-68
2023/08/20 06:26:47;;;;;;;14.65;11.38;;;;;;;20.54;100.00;102096.34;6047369;29;20241;-67
2023/08/20 06:30:09;;;;;;;14.57;11.60;;;;;;;20.23;100.00;102088.97;6060737;29;20619;-66
2023/08/20 06:33:31;;;;;;;13.70;11.90;;;;;;;20.40;100.00;102096.19;6045224;29;20240;-67
2023/08/20 06:36:53;;;;;;;18.92;14.85;;;;;;;20.91;100.00;102087.59;6043096;29;20324;-67
2023/08/20 06:40:14;;;;;;;23.35;15.70;;;;;;;21.55;99.32;102078.31;6052644;29;20238;-67
2023/08/20 06:43:35;;;;;;;28.25;19.90;;;;;;;21.65;96.68;102098.22;6034735;29;20615;-66
2023/08/20 06:46:57;;;;;;;25.88;17.65;;;;;;;21.07;95.61;102104.03;6032472;29;20237;-67
2023/08/20 06:50:19;;;;;;;30.60;18.63;;;;;;;21.16;95.63;102105.72;6052925;29;20615;-66
2023/08/20 06:53:41;;;;;;;29.02;18.88;;;;;;;20.69;97.08;102113.81;6043975;29;20229;-67
2023/08/20 06:57:03;;;;;;;24.45;17.65;;;;;;;20.64;97.27;102121.69;6053275;29;20241;-67
2023/08/20 07:00:24;;;;;;;24.15;18.40;;;;;;;20.25;98.56;102126.13;6061662;29;20233;-67
2023/08/20 07:03:45;;;;;;;18.98;15.23;;;;;;;20.58;100.00;102121.53;6053318;29;20229;-67
2023/08/20 07:07:07;;;;;;;23.98;17.15;;;;;;;20.74;99.00;102129.75;6047742;29;20312;-67
2023/08/20 07:10:28;;;;;;;21.00;16.20;;;;;;;20.90;98.93;102124.28;6059080;29;20232;-67
2023/08/20 07:13:49;;;;;;;21.63;16.80;;;;;;;20.83;98.51;102116.88;6053485;29;20225;-67
2023/08/20 07:17:10;;;;;;;21.33;16.77;;;;;;;20.45;99.44;102121.16;6051511;29;20257;-66
2023/08/20 07:20:31;;;;;;;23.25;15.25;;;;;;;20.88;98.74;102122.72;6065469;29;20233;-67
2023/08/20 07:23:53;;;;;;;22.80;15.77;;;;;;;21.01;98.37;102134.00;6060468;29;20233;-67
2023/08/20 07:27:14;;;;;;;20.77;15.38;;;;;;;21.66;97.21;102131.97;6027342;29;20735;-67
2023/08/20 07:30:35;;;;;;;21.73;15.43;;;;;;;21.97;94.96;102127.41;6059441;29;20263;-67
2023/08/20 07:33:57;;;;;;;25.70;19.60;;;;;;;21.12;95.24;102129.06;6043157;29;20237;-67
2023/08/20 07:37:17;;;;;;;20.98;17.85;;;;;;;20.93;96.79;102128.53;6055155;29;20233;-67
2023/08/20 07:40:42;;;;;;;27.13;18.15;;;;;;;20.91;97.77;102133.34;6058668;29;20240;-67
2023/08/20 07:44:03;;;;;;;27.80;18.90;;;;;;;21.70;97.20;102136.94;6058212;29;20304;-68
2023/08/20 07:47:24;;;;;;;19.60;14.57;;;;;;;21.52;94.84;102140.97;6058342;29;20237;-67
2023/08/20 07:50:45;;;;;;;15.93;12.90;;;;;;;21.59;95.40;102134.56;6052053;29;20225;-67
2023/08/20 07:54:06;;;;;;;14.95;8.93;;;;;;;21.05;95.28;102129.94;6049610;29;20324;-68
2023/08/20 07:57:28;;;;;;;11.40;10.15;;;;;;;20.81;96.70;102139.00;6054343;29;20226;-67
2023/08/20 08:00:49;;;;;;;9.80;7.72;;;;;;;21.42;96.49;102133.78;6052056;29;20229;-68
2023/08/20 08:04:09;;;;;;;9.82;8.85;;;;;;;21.68;95.23;102139.00;6052997;29;20236;-67
2023/08/20 08:07:30;;;;;;;28.92;23.85;;;;;;;21.74;93.60;102142.94;6039382;29;20244;-68
2023/08/20 08:10:51;;;;;;;29.10;26.05;;;;;;;21.62;93.12;102145.22;6056891;29;20269;-67
2023/08/20 08:14:13;;;;;;;281.33;181.52;;;;;;;22.02;93.62;102149.72;6052824;29;20587;-69
2023/08/20 08:17:35;;;;;;;64.63;58.80;;;;;;;22.06;89.87;102156.56;6057262;29;20631;-66
2023/08/20 08:20:56;;;;;;;22.73;19.92;;;;;;;22.66;88.78;102152.06;6053635;29;20237;-72
2023/08/20 08:24:17;;;;;;;37.88;27.35;;;;;;;22.71;85.89;102155.13;6007700;29;20237;-66
2023/08/20 08:27:38;;;;;;;20.27;18.17;;;;;;;22.80;85.03;102154.00;6042178;29;20240;-70
2023/08/20 08:31:00;;;;;;;12.13;11.10;;;;;;;22.54;83.84;102161.75;6057589;29;20245;-66
2023/08/20 08:34:21;;;;;;;4.80;3.88;;;;;;;22.42;85.15;102159.59;6046599;29;20240;-67
2023/08/20 08:37:42;;;;;;;5.35;3.35;;;;;;;23.14;82.74;102159.03;6050582;29;20316;-68
2023/08/20 08:41:04;;;;;;;3.80;2.78;;;;;;;23.21;80.41;102159.13;6048915;29;20245;-66
2023/08/20 08:44:25;;;;;;;4.68;2.67;;;;;;;22.96;80.09;102155.78;6050119;29;20658;-68
2023/08/20 08:47:48;;;;;;;4.20;2.83;;;;;;;23.13;79.81;102156.47;6021848;29;20233;-68
2023/08/20 08:51:10;;;;;;;4.25;2.50;;;;;;;23.03;78.83;102157.56;6041746;29;20234;-67
2023/08/20 08:54:33;;;;;;;2.85;2.25;;;;;;;23.71;78.33;102157.41;6036838;29;20487;-67
2023/08/20 08:57:54;;;;;;;4.68;2.28;;;;;;;23.55;77.46;102163.09;6042433;29;20313;-68
2023/08/20 09:01:15;;;;;;;4.90;2.33;;;;;;;23.75;76.38;102166.13;6056256;29;20237;-68
2023/08/20 09:04:39;;;;;;;2.70;2.13;;;;;;;23.67;76.55;102167.09;6039883;29;20498;-68
2023/08/20 09:08:00;;;;;;;4.15;1.80;;;;;;;24.18;76.26;102162.50;6052420;29;20233;-67
2023/08/20 09:11:21;;;;;;;7.93;2.05;;;;;;;24.06;74.01;102166.78;6049702;29;20236;-68
2023/08/20 09:14:46;;;;;;;7.70;2.40;;;;;;;24.21;74.49;102162.13;6048228;29;20229;-67
2023/08/20 09:18:10;;;;;;;4.32;2.78;;;;;;;23.34;75.22;102167.66;6052905;29;20517;-67
2023/08/20 09:21:32;;;;;;;3.25;2.30;;;;;;;23.63;76.81;102164.91;6047141;29;20226;-67
2023/08/20 09:24:55;;;;;;;3.17;1.92;;;;;;;23.97;75.96;102156.88;6061629;29;20515;-68
2023/08/20 09:28:16;;;;;;;2.40;1.58;;;;;;;24.33;75.45;102151.41;6055544;29;20229;-67
2023/08/20 09:31:43;;;;;;;2.13;1.90;;;;;;;24.45;74.53;102161.75;6066185;29;20602;-67
2023/08/20 09:35:04;;;;;;;3.78;2.25;;;;;;;23.56;75.11;102162.06;6043894;29;20255;-67
2023/08/20 09:38:29;;;;;;;4.80;2.40;;;;;;;24.13;77.08;102169.63;6053331;29;20241;-67
2023/08/20 09:41:52;;;;;;;4.05;2.10;;;;;;;24.23;75.74;102156.41;6040767;29;20451;-67
2023/08/20 09:45:13;;;;;;;2.92;2.42;;;;;;;23.42;78.41;102167.56;6053512;29;20286;-68
2023/08/20 09:48:35;;;;;;;5.22;2.97;;;;;;;24.14;76.84;102168.56;6020935;29;20324;-67
2023/08/20 09:51:59;;;;;;;6.63;2.67;;;;;;;24.74;75.21;102160.78;6049578;29;20240;-66
2023/08/20 09:55:23;;;;;;;3.45;1.98;;;;;;;25.35;73.40;102162.81;6058699;29;20233;-68
2023/08/20 09:58:45;;;;;;;6.85;2.85;;;;;;;25.36;71.97;102158.16;6048235;29;20248;-68
2023/08/20 10:02:06;;;;;;;6.53;3.17;;;;;;;24.74;71.96;102154.44;6045285;29;20313;-68
2023/08/20 10:05:27;;;;;;;4.18;3.03;;;;;;;24.43;73.36;102147.31;6056691;29;20225;-68
2023/08/20 10:08:49;;;;;;;6.07;3.05;;;;;;;24.92;72.92;102152.06;6041115;29;20240;-67
2023/08/20 10:12:12;;;;;;;4.03;2.75;;;;;;;24.66;72.79;102147.09;6045638;29;20250;-67
2023/08/20 10:15:36;;;;;;;3.45;2.38;;;;;;;25.05;72.56;102150.28;6038907;29;20246;-66
2023/08/20 10:19:03;;;;;;;2.70;2.17;;;;;;;25.63;71.75;102137.97;6032050;29;20789;-67
2023/08/20 10:22:32;;;;;;;5.45;2.90;;;;;;;26.01;69.01;102138.38;6028418;29;20254;-67
2023/08/20 10:25:54;;;;;;;3.67;2.47;;;;;;;26.10;68.17;102138.00;6028344;29;20241;-67
2023/08/20 10:29:39;;;;;;;4.65;2.22;;;;;;;25.79;68.09;102139.53;6033693;29;20290;-67
2023/08/20 10:33:02;;;;;;;6.93;2.40;;;;;;;26.28;67.51;102133.81;6047162;29;20796;-67
2023/08/20 10:36:27;;;;;;;7.22;2.75;;;;;;;26.42;66.69;102136.38;6055337;29;20237;-67
2023/08/20 10:39:54;;;;;;;2.67;2.47;;;;;;;26.38;65.48;102137.88;6025517;29;21116;-67
2023/08/20 10:43:27;;;;;;;4.43;2.38;;;;;;;26.07;65.93;102137.53;6046531;29;20241;-68
2023/08/20 10:46:51;;;;;;;3.03;2.25;;;;;;;25.37;66.31;102126.69;6045253;29;20264;-67
2023/08/20 10:50:17;;;;;;;3.40;2.40;;;;;;;25.27;67.71;102127.06;6052493;29;20228;-69
2023/08/20 10:53:38;;;;;;;10.18;2.15;;;;;;;25.42;67.42;102131.66;6030879;29;20232;-68
2023/08/20 10:56:59;;;;;;;4.93;2.55;;;;;;;25.08;67.34;102135.19;6046313;29;20842;-68
2023/08/20 11:00:20;;;;;;;2.88;1.92;;;;;;;25.97;66.85;102134.31;6055774;29;20686;-69
2023/08/20 11:03:43;;;;;;;4.35;2.40;;;;;;;26.71;63.94;102130.47;6045580;29;20233;-68
2023/08/20 11:07:05;;;;;;;5.85;2.83;;;;;;;25.20;66.09;102125.34;6041931;29;20241;-66
2023/08/20 11:10:27;;;;;;;6.20;2.63;;;;;;;26.40;64.33;102132.13;6059482;29;20230;-67
2023/08/20 11:13:47;;;;;;;2.42;1.88;;;;;;;28.00;61.82;102129.69;6050885;29;20241;-67
2023/08/20 11:17:09;;;;;;;4.88;2.22;;;;;;;28.51;58.80;102137.09;6048391;29;20241;-67
2023/08/20 11:20:31;;;;;;;2.60;1.73;;;;;;;27.67;60.03;102142.81;6051367;29;20677;-67
2023/08/20 11:23:54;;;;;;;6.07;2.08;;;;;;;28.29;58.61;102145.78;6043390;29;20659;-67
2023/08/20 11:27:16;;;;;;;6.68;2.17;;;;;;;28.23;58.70;102134.69;6049278;29;20242;-68
2023/08/20 11:30:36;;;;;;;2.88;1.70;;;;;;;27.02;60.58;102146.47;6060143;29;20241;-67
2023/08/20 11:33:58;;;;;;;4.32;2.15;;;;;;;27.67;60.94;102151.13;6044775;29;22083;-68
2023/08/20 11:37:21;;;;;;;6.30;2.38;;;;;;;27.75;60.38;102150.00;6042150;29;20236;-67
2023/08/20 11:40:43;;;;;;;4.40;2.50;;;;;;;28.37;58.29;102147.47;6063056;29;20356;-67
2023/08/20 11:44:04;;;;;;;5.22;2.00;;;;;;;28.67;56.77;102144.91;6055927;29;20241;-67
2023/08/20 11:47:25;;;;;;;4.35;2.10;;;;;;;29.25;56.52;102142.78;6055297;29;20313;-67
2023/08/20 11:50:46;;;;;;;4.28;2.60;;;;;;;29.72;55.16;102139.28;6063737;29;20233;-67
2023/08/20 11:54:09;;;;;;;2.58;2.22;;;;;;;29.89;54.56;102143.19;6050979;29;20248;-67
2023/08/20 11:57:31;;;;;;;6.50;1.80;;;;;;;30.43;53.37;102143.13;6055169;29;20585;-68
2023/08/20 12:00:52;;;;;;;3.03;2.20;;;;;;;30.71;52.14;102134.94;6058231;29;20229;-66
2023/08/20 12:04:12;;;;;;;2.83;1.50;;;;;;;33.08;48.57;102139.38;6049155;29;20229;-67
2023/08/20 12:07:34;;;;;;;3.53;1.95;;;;;;;36.09;43.25;102142.63;6059051;29;20232;-67
2023/08/20 12:10:58;;;;;;;2.70;1.40;;;;;;;32.33;48.43;102137.69;6063207;29;20238;-67
2023/08/20 12:14:20;;;;;;;2.83;1.58;;;;;;;30.86;48.86;102140.09;6043330;29;20260;-65
2023/08/20 12:17:41;;;;;;;2.63;1.88;;;;;;;31.39;50.50;102152.09;6045491;29;20229;-67
2023/08/20 12:21:02;;;;;;;5.55;2.22;;;;;;;30.08;53.08;102132.88;6058896;29;20248;-67
2023/08/20 12:24:23;;;;;;;2.70;1.25;;;;;;;31.11;49.56;102131.53;6049567;29;20627;-66
2023/08/20 12:27:45;;;;;;;3.65;2.20;;;;;;;29.75;52.41;102130.47;6051934;29;20550;-67
2023/08/20 12:31:06;;;;;;;3.20;1.80;;;;;;;31.19;51.43;102134.81;6056372;29;20545;-68
2023/08/20 12:34:28;;;;;;;4.82;2.00;;;;;;;33.01;47.10;102120.81;6048620;29;20241;-67
2023/08/20 12:37:49;;;;;;;2.72;2.25;;;;;;;29.17;53.57;102118.91;6046524;29;20241;-67
2023/08/20 12:41:10;;;;;;;3.58;2.25;;;;;;;32.19;48.46;102124.25;6058419;29;20255;-68
2023/08/20 12:44:32;;;;;;;3.28;1.60;;;;;;;32.42;46.65;102126.13;6050979;29;20261;-67
2023/08/20 12:47:53;;;;;;;4.40;1.63;;;;;;;33.46;46.52;102119.84;6039379;29;20263;-67
2023/08/20 12:51:17;;;;;;;4.88;2.08;;;;;;;30.43;50.49;102115.28;6018335;29;20237;-66
2023/08/20 12:54:38;;;;;;;4.03;1.75;;;;;;;33.49;44.68;102110.91;6048407;29;20557;-66
2023/08/20 12:58:00;;;;;;;2.50;1.77;;;;;;;32.49;45.33;102124.03;6050043;29;20324;-66
2023/08/20 13:01:22;;;;;;;4.35;2.53;;;;;;;33.49;43.70;102110.91;6060014;29;20232;-66
2023/08/20 13:04:45;;;;;;;3.33;1.92;;;;;;;33.19;43.73;102111.31;6046082;29;20237;-67
2023/08/20 13:08:07;;;;;;;7.43;1.83;;;;;;;34.84;40.87;102117.34;6043859;29;20229;-67
2023/08/20 13:11:30;;;;;;;6.30;2.17;;;;;;;34.52;41.37;102122.09;6059214;29;20233;-66
2023/08/20 13:14:51;;;;;;;2.42;1.52;;;;;;;33.34;43.75;102105.97;6053335;29;20332;-67
2023/08/20 13:18:15;;;;;;;2.72;1.70;;;;;;;35.70;41.01;102107.63;6059760;29;20253;-66
2023/08/20 13:21:36;;;;;;;2.40;1.75;;;;;;;33.33;43.88;102101.47;6064653;29;20233;-67
2023/08/20 13:24:56;;;;;;;1.50;1.30;;;;;;;32.40;43.75;102104.00;6040145;29;20233;-68
2023/08/20 13:28:17;;;;;;;2.33;1.60;;;;;;;32.34;44.71;102107.81;6045120;29;20329;-68
2023/08/20 13:31:38;;;;;;;3.40;2.28;;;;;;;30.42;48.59;102107.13;6055915;29;20233;-66
2023/08/20 13:35:01;;;;;;;4.50;2.45;;;;;;;31.95;46.18;102103.97;6041644;29;20309;-67
2023/08/20 13:38:22;;;;;;;3.45;1.40;;;;;;;31.54;46.00;102106.97;6061897;29;20237;-66
2023/08/20 13:41:43;;;;;;;4.47;2.15;;;;;;;31.76;46.08;102101.56;6072097;29;20237;-67
2023/08/20 13:45:05;;;;;;;3.55;1.98;;;;;;;34.11;42.57;102101.16;6055777;29;20569;-66
2023/08/20 13:48:26;;;;;;;3.67;1.77;;;;;;;32.76;44.40;102097.16;6060869;29;20595;-66
2023/08/20 13:51:48;;;;;;;1.67;1.40;;;;;;;34.18;43.54;102095.34;6033605;29;20241;-68
2023/08/20 13:55:09;;;;;;;1.75;1.58;;;;;;;31.86;46.82;102113.78;6052549;29;20793;-67
2023/08/20 13:58:30;;;;;;;2.22;1.98;;;;;;;31.93;46.78;102108.06;6052209;29;20243;-67
2023/08/20 14:01:51;;;;;;;4.40;2.60;;;;;;;32.05;48.58;102101.41;6041999;29;20233;-67
2023/08/20 14:05:12;;;;;;;2.22;1.58;;;;;;;32.74;45.64;102091.81;6053811;29;20595;-67
2023/08/20 14:08:34;;;;;;;3.45;1.63;;;;;;;33.47;45.44;102101.94;6049362;29;20312;-66
2023/08/20 14:11:55;;;;;;;2.25;1.83;;;;;;;34.08;44.31;102096.09;6057127;29;20233;-67
2023/08/20 14:15:16;;;;;;;1.77;1.52;;;;;;;34.83;41.96;102096.03;6062344;29;20248;-67
2023/08/20 14:18:37;;;;;;;2.28;1.75;;;;;;;34.65;41.99;102099.25;6053240;29;20316;-67
2023/08/20 14:21:58;;;;;;;2.88;1.77;;;;;;;33.50;43.62;102102.31;6052970;29;20237;-67
2023/08/20 14:25:20;;;;;;;15.77;2.45;;;;;;;33.32;44.73;102090.53;6062361;29;20233;-67
2023/08/20 14:28:43;;;;;;;2.58;1.70;;;;;;;33.16;44.20;102083.88;6051361;29;20241;-67
2023/08/20 14:32:04;;;;;;;1.60;1.50;;;;;;;32.63;44.51;102077.91;6065491;29;20246;-67
2023/08/20 14:35:25;;;;;;;3.03;1.88;;;;;;;32.13;46.11;102072.22;6061309;29;20245;-67
2023/08/20 14:38:46;;;;;;;2.80;1.90;;;;;;;32.28;46.33;102073.38;6049684;29;20708;-68
2023/08/20 14:42:09;;;;;;;4.15;2.25;;;;;;;30.80;48.67;102071.41;6039821;29;20874;-67
2023/08/20 14:45:30;;;;;;;1.83;1.52;;;;;;;31.30;48.38;102060.63;6056099;29;20253;-67
2023/08/20 14:48:50;;;;;;;3.92;1.75;;;;;;;31.54;47.40;102068.75;6054408;29;20312;-68
2023/08/20 14:52:11;;;;;;;3.22;2.05;;;;;;;30.69;48.18;102061.06;6048287;29;20249;-67
2023/08/20 14:55:33;;;;;;;2.92;1.38;;;;;;;30.30;50.61;102054.22;6063868;29;20249;-68
2023/08/20 14:58:55;;;;;;;1.65;1.42;;;;;;;30.82;49.02;102065.56;6046681;29;20620;-68
2023/08/20 15:02:16;;;;;;;3.45;2.15;;;;;;;30.87;48.88;102055.47;6047514;29;20233;-68
2023/08/20 15:05:37;;;;;;;1.75;1.20;;;;;;;30.14;47.75;102062.38;6058331;29;20315;-68
2023/08/20 15:08:58;;;;;;;3.72;1.65;;;;;;;30.48;47.80;102047.72;6048608;29;20237;-68
2023/08/20 15:12:19;;;;;;;5.20;1.90;;;;;;;30.78;49.03;102057.72;6046232;29;20241;-68
2023/08/20 15:15:41;;;;;;;2.75;1.67;;;;;;;30.66;48.39;102045.72;6049941;29;20249;-66
2023/08/20 15:19:02;;;;;;;2.50;1.45;;;;;;;30.97;48.65;102054.84;6054669;29;20335;-67
2023/08/20 15:22:23;;;;;;;2.95;1.70;;;;;;;31.45;48.16;102053.50;6056975;29;20473;-68
2023/08/20 15:25:47;;;;;;;2.40;1.73;;;;;;;31.23;47.24;102062.72;6061396;29;20241;-67
2023/08/20 15:29:08;;;;;;;3.03;2.20;;;;;;;30.74;47.31;102050.94;6044139;29;20233;-68
2023/08/20 15:32:30;;;;;;;2.75;1.50;;;;;;;29.74;49.10;102049.00;6052390;29;20268;-67